Time;durP1;ratioP1;P1;durP2;ratioP2;P2;SDS_P1;SDS_P2;PMS_P1;PMS_P2;Temp;Humidity;BMP_temperature;BMP_pressure;BME280_temperature;BME280_humidity;BME280_pressure;Samples;Min_cycle;Max_cycle;Signal;HPM_P1;HPM_P2
2021/11/07 00:06:34;;;;;;;11.63;5.07;;;12.90;86.40;;;;;;5094421;28;20500;-76
2021/11/07 00:09:11;;;;;;;12.00;5.25;;;12.90;86.60;;;;;;5094685;28;20016;-76
2021/11/07 00:11:39;;;;;;;11.18;4.90;;;12.90;86.40;;;;;;5094385;28;20031;-74
2021/11/07 00:14:06;;;;;;;12.50;5.13;;;12.90;86.50;;;;;;5093010;28;20024;-75
2021/11/07 00:16:35;;;;;;;11.60;4.50;;;12.90;86.30;;;;;;5094014;28;20024;-76
2021/11/07 00:19:08;;;;;;;13.23;5.28;;;12.90;86.40;;;;;;5095701;28;20020;-76
2021/11/07 00:22:46;;;;;;;8.63;4.50;;;12.90;86.40;;;;;;5096929;28;20078;-76
2021/11/07 00:27:19;;;;;;;9.95;4.47;;;12.90;86.20;;;;;;5093752;28;20043;-76
2021/11/07 00:29:54;;;;;;;13.45;4.93;;;12.90;86.30;;;;;;5092765;28;20497;-77
2021/11/07 00:32:43;;;;;;;9.77;4.47;;;12.90;86.40;;;;;;5092687;28;20546;-74
2021/11/07 00:37:43;;;;;;;8.27;4.32;;;12.90;86.60;;;;;;5093990;28;20044;-74
2021/11/07 00:50:55;;;;;;;8.68;3.75;;;12.80;87.10;;;;;;5099932;28;20052;-76
2021/11/07 00:56:22;;;;;;;11.25;4.18;;;12.80;87.20;;;;;;5093256;28;20106;-77
2021/11/07 01:01:22;;;;;;;9.73;4.03;;;12.80;87.80;;;;;;5093727;28;20020;-77
2021/11/07 01:03:48;;;;;;;7.20;3.33;;;12.80;87.50;;;;;;5093274;28;20073;-77
2021/11/07 01:06:15;;;;;;;7.70;3.58;;;12.80;87.40;;;;;;5091634;28;20024;-76
2021/11/07 01:08:40;;;;;;;7.60;3.65;;;12.80;88.00;;;;;;5093174;28;20473;-76
2021/11/07 01:11:06;;;;;;;10.02;4.00;;;12.80;87.50;;;;;;5091956;28;20026;-75
2021/11/07 01:13:35;;;;;;;7.32;3.67;;;12.80;87.70;;;;;;5091860;28;20073;-77
2021/11/07 01:16:01;;;;;;;8.38;3.60;;;12.80;87.60;;;;;;5091438;28;20788;-76
2021/11/07 01:18:27;;;;;;;7.72;3.72;;;12.80;87.60;;;;;;5093166;28;20031;-73
2021/11/07 01:20:53;;;;;;;7.20;3.60;;;12.80;88.30;;;;;;5092614;28;20028;-75
2021/11/07 01:23:25;;;;;;;7.18;3.60;;;12.80;87.80;;;;;;5091707;28;20020;-76
2021/11/07 01:25:56;;;;;;;7.10;3.35;;;12.80;87.80;;;;;;5092771;28;20020;-75
2021/11/07 01:28:23;;;;;;;7.78;3.75;;;12.80;87.80;;;;;;5092892;28;20024;-77
2021/11/07 01:30:53;;;;;;;7.25;3.30;;;12.80;87.80;;;;;;5091668;28;20110;-75
2021/11/07 01:33:26;;;;;;;7.90;3.60;;;12.80;88.30;;;;;;5091676;28;20024;-76
2021/11/07 01:38:27;;;;;;;;;;;12.80;87.90;;;;;;5093717;28;20024;-77
2021/11/07 01:43:21;;;;;;;6.65;3.38;;;12.80;87.90;;;;;;5093092;28;20363;-76
2021/11/07 01:45:52;;;;;;;7.07;3.40;;;12.80;87.90;;;;;;5092441;28;20027;-75
2021/11/07 01:48:24;;;;;;;6.75;3.35;;;12.80;88.00;;;;;;5091797;28;20081;-76
2021/11/07 01:50:55;;;;;;;6.40;3.35;;;12.80;88.00;;;;;;5092626;28;20027;-75
2021/11/07 01:53:33;;;;;;;6.70;3.08;;;12.80;87.90;;;;;;5092593;28;20688;-76
2021/11/07 01:56:03;;;;;;;6.63;3.22;;;12.80;88.10;;;;;;5090791;28;20115;-76
2021/11/07 01:58:30;;;;;;;8.15;3.60;;;12.80;88.00;;;;;;5091382;28;20032;-76
2021/11/07 02:00:56;;;;;;;6.13;3.47;;;12.80;88.00;;;;;;5092474;28;20195;-76
2021/11/07 02:03:24;;;;;;;6.72;3.00;;;12.80;88.00;;;;;;5091369;28;20028;-77
2021/11/07 02:05:50;;;;;;;6.53;3.45;;;12.80;88.50;;;;;;5091008;28;20020;-76
2021/11/07 02:08:21;;;;;;;6.07;3.05;;;12.80;88.00;;;;;;5091232;28;20024;-77
2021/11/07 02:10:49;;;;;;;6.30;3.40;;;12.80;88.00;;;;;;5090538;28;20477;-75
2021/11/07 02:13:15;;;;;;;5.97;3.30;;;12.80;88.00;;;;;;5092390;28;20397;-73
2021/11/07 02:15:41;;;;;;;6.07;2.88;;;12.80;88.00;;;;;;5092008;28;20030;-76
2021/11/07 02:18:06;;;;;;;6.53;3.05;;;12.80;88.00;;;;;;5092284;28;20016;-76
2021/11/07 02:20:36;;;;;;;6.15;3.40;;;12.80;88.10;;;;;;5091831;28;20020;-76
2021/11/07 02:23:08;;;;;;;6.35;3.13;;;12.80;88.10;;;;;;5091428;28;20048;-76
2021/11/07 02:25:35;;;;;;;5.70;3.00;;;12.80;88.10;;;;;;5092130;28;20024;-75
2021/11/07 02:28:03;;;;;;;6.95;3.55;;;12.80;88.00;;;;;;5092194;28;20020;-76
2021/11/07 02:30:29;;;;;;;5.82;3.00;;;12.80;88.10;;;;;;5092300;28;20069;-76
2021/11/07 02:32:55;;;;;;;5.88;2.83;;;12.80;88.10;;;;;;5092208;28;20118;-76
2021/11/07 02:35:21;;;;;;;6.78;3.47;;;12.80;88.20;;;;;;5091920;28;20031;-77
2021/11/07 02:37:48;;;;;;;6.82;3.40;;;12.80;88.20;;;;;;5091006;28;20028;-76
2021/11/07 02:40:14;;;;;;;5.78;3.00;;;12.80;88.20;;;;;;5090905;28;20021;-76
2021/11/07 02:42:43;;;;;;;7.72;3.53;;;12.80;88.20;;;;;;5092185;28;20037;-75
2021/11/07 02:45:10;;;;;;;6.60;3.15;;;12.80;88.20;;;;;;5091889;28;20016;-74
2021/11/07 02:47:36;;;;;;;5.35;3.00;;;12.80;88.40;;;;;;5090948;28;20024;-75
2021/11/07 02:50:02;;;;;;;5.88;3.03;;;12.80;88.30;;;;;;5091943;28;20027;-75
2021/11/07 02:52:28;;;;;;;5.90;3.05;;;12.80;88.30;;;;;;5090678;28;20056;-75
2021/11/07 02:54:53;;;;;;;5.45;2.60;;;12.80;88.30;;;;;;5091906;28;20085;-75
2021/11/07 02:57:21;;;;;;;5.82;3.28;;;12.80;88.30;;;;;;5091573;28;20115;-76
2021/11/07 02:59:54;;;;;;;5.15;3.00;;;12.80;88.30;;;;;;5091940;28;20055;-75
2021/11/07 03:02:19;;;;;;;5.68;3.13;;;12.80;88.30;;;;;;5092069;28;20362;-75
2021/11/07 03:04:45;;;;;;;5.55;3.28;;;12.80;88.40;;;;;;5093298;28;20017;-75
2021/11/07 03:07:10;;;;;;;6.85;3.15;;;12.80;90.00;;;;;;5095362;28;20024;-75
2021/11/07 03:09:37;;;;;;;5.43;2.90;;;12.80;90.00;;;;;;5102643;28;20067;-76
2021/11/07 03:12:05;;;;;;;5.43;3.05;;;12.80;89.70;;;;;;5099362;28;20390;-73
2021/11/07 03:14:41;;;;;;;7.57;2.92;;;12.80;89.30;;;;;;5112438;28;20023;-76
2021/11/07 03:17:09;;;;;;;6.47;3.17;;;12.80;89.00;;;;;;5115425;28;20019;-76
2021/11/07 03:19:35;;;;;;;6.40;3.35;;;12.80;89.30;;;;;;5115653;27;20485;-75
2021/11/07 03:22:07;;;;;;;6.80;2.95;;;12.90;88.70;;;;;;5115179;28;20034;-75
2021/11/07 03:24:33;;;;;;;5.95;3.30;;;12.90;88.70;;;;;;5115574;28;20016;-76
2021/11/07 03:26:59;;;;;;;5.57;2.97;;;12.90;88.90;;;;;;5115460;28;20160;-75
2021/11/07 03:29:32;;;;;;;5.63;2.83;;;12.90;88.50;;;;;;5115634;28;20024;-76
2021/11/07 03:32:12;;;;;;;5.57;3.35;;;12.90;88.50;;;;;;5115591;28;20169;-76
2021/11/07 03:34:44;;;;;;;6.00;3.10;;;12.90;88.40;;;;;;5115448;28;20106;-76
2021/11/07 03:37:12;;;;;;;6.05;2.88;;;12.90;88.30;;;;;;5113927;28;20490;-75
2021/11/07 03:39:39;;;;;;;5.57;2.95;;;12.90;88.40;;;;;;5115371;27;20016;-77
2021/11/07 03:42:08;;;;;;;6.45;3.13;;;12.90;88.30;;;;;;5115303;28;20020;-76
2021/11/07 03:44:34;;;;;;;6.07;3.17;;;12.90;88.30;;;;;;5115176;28;20103;-76
2021/11/07 03:47:02;;;;;;;4.93;3.13;;;12.90;88.30;;;;;;5117529;28;20075;-76
2021/11/07 03:49:27;;;;;;;5.80;3.22;;;12.90;88.40;;;;;;5114550;28;20110;-77
2021/11/07 03:51:53;;;;;;;5.38;3.20;;;12.80;88.50;;;;;;5113734;28;20047;-76
2021/11/07 03:54:22;;;;;;;5.38;3.30;;;12.80;88.70;;;;;;5115056;28;20024;-76
2021/11/07 03:56:47;;;;;;;5.18;3.30;;;12.80;88.70;;;;;;5113307;28;20118;-77
2021/11/07 03:59:14;;;;;;;5.95;3.53;;;12.80;89.00;;;;;;5115026;28;20103;-77
2021/11/07 04:01:39;;;;;;;5.90;3.63;;;12.80;89.00;;;;;;5114866;28;20077;-77
2021/11/07 04:04:06;;;;;;;5.30;3.35;;;12.80;88.80;;;;;;5114822;28;20028;-75
2021/11/07 04:06:32;;;;;;;7.15;3.58;;;12.80;89.10;;;;;;5114516;28;20102;-76
2021/11/07 04:09:00;;;;;;;5.25;3.30;;;12.80;89.10;;;;;;5114703;28;20027;-76
2021/11/07 04:11:26;;;;;;;5.53;3.42;;;12.80;89.00;;;;;;5113517;28;20034;-75
2021/11/07 04:13:51;;;;;;;5.40;3.70;;;12.80;89.20;;;;;;5114716;28;20032;-76
2021/11/07 04:16:17;;;;;;;7.63;3.50;;;12.80;89.30;;;;;;5113063;28;20469;-76
2021/11/07 04:18:46;;;;;;;5.47;3.42;;;12.80;89.30;;;;;;5118656;28;20023;-76
2021/11/07 04:21:13;;;;;;;6.63;3.90;;;12.80;89.30;;;;;;5113950;28;20030;-76
2021/11/07 04:23:39;;;;;;;6.50;3.40;;;12.80;89.10;;;;;;5113224;28;20026;-76
2021/11/07 04:26:05;;;;;;;5.25;3.55;;;12.80;89.10;;;;;;5113159;28;20027;-76
2021/11/07 04:28:31;;;;;;;6.10;3.60;;;12.80;89.20;;;;;;5114348;28;20051;-77
2021/11/07 04:30:57;;;;;;;6.85;4.13;;;12.80;89.20;;;;;;5113125;28;20662;-76
2021/11/07 04:33:24;;;;;;;6.28;4.10;;;12.80;89.20;;;;;;5112956;28;20130;-76
2021/11/07 04:35:50;;;;;;;6.55;3.97;;;12.80;89.30;;;;;;5113991;28;20080;-75
2021/11/07 04:38:16;;;;;;;7.00;4.25;;;12.80;89.50;;;;;;5113000;28;20032;-73
2021/11/07 04:40:42;;;;;;;7.00;4.22;;;12.80;89.40;;;;;;5114072;28;20389;-76
2021/11/07 04:43:08;;;;;;;8.07;3.78;;;12.80;89.30;;;;;;5112818;28;20019;-75
2021/11/07 04:45:33;;;;;;;6.93;4.25;;;12.80;89.20;;;;;;5113879;28;20047;-75
2021/11/07 04:48:01;;;;;;;8.57;4.93;;;12.80;89.50;;;;;;5113993;28;20626;-76
2021/11/07 04:50:27;;;;;;;8.55;4.72;;;12.80;89.40;;;;;;5113994;28;20374;-75
2021/11/07 04:52:53;;;;;;;8.63;4.63;;;12.80;89.40;;;;;;5113912;28;20045;-76
2021/11/07 04:55:19;;;;;;;9.50;4.35;;;12.80;89.40;;;;;;5113670;28;20153;-77
2021/11/07 04:57:45;;;;;;;8.63;4.45;;;12.80;89.40;;;;;;5112369;28;20110;-77
2021/11/07 05:00:18;;;;;;;7.03;4.70;;;12.80;89.50;;;;;;5113797;28;20488;-75
2021/11/07 05:02:45;;;;;;;8.30;4.70;;;12.80;89.40;;;;;;5112791;28;20019;-75
2021/11/07 05:05:11;;;;;;;7.60;5.10;;;12.80;89.50;;;;;;5113392;28;20011;-78
2021/11/07 05:07:37;;;;;;;6.65;4.70;;;12.80;89.50;;;;;;5113613;28;20054;-75
2021/11/07 05:10:04;;;;;;;7.10;5.15;;;12.80;89.40;;;;;;5109908;28;20047;-76
2021/11/07 05:12:29;;;;;;;7.88;4.75;;;12.80;89.80;;;;;;5108415;28;20061;-77
2021/11/07 05:14:55;;;;;;;8.77;5.53;;;12.80;89.60;;;;;;5093142;28;20052;-76
2021/11/07 05:17:21;;;;;;;6.35;4.68;;;12.80;89.60;;;;;;5092784;28;20081;-76
2021/11/07 05:19:47;;;;;;;7.10;4.47;;;12.80;89.80;;;;;;5116595;22;20040;-78
2021/11/07 05:22:12;;;;;;;7.05;4.97;;;12.80;89.50;;;;;;5074880;28;20024;-81
2021/11/07 05:24:38;;;;;;;6.85;5.35;;;12.80;89.60;;;;;;5070509;28;20058;-82
2021/11/07 05:27:04;;;;;;;6.50;5.10;;;12.80;89.60;;;;;;5085270;28;20027;-82
2021/11/07 05:29:29;;;;;;;10.23;5.32;;;12.80;89.60;;;;;;5074945;28;20024;-82
2021/11/07 05:31:56;;;;;;;6.20;4.70;;;12.80;89.70;;;;;;5093038;28;20032;-82
2021/11/07 05:34:22;;;;;;;8.40;5.30;;;12.80;89.70;;;;;;5074921;28;20031;-81
2021/11/07 05:36:47;;;;;;;6.80;4.55;;;12.80;89.60;;;;;;5074798;28;20128;-82
2021/11/07 05:39:13;;;;;;;6.40;4.78;;;12.80;89.70;;;;;;5074854;28;20016;-82
2021/11/07 05:41:39;;;;;;;6.45;4.53;;;12.80;89.80;;;;;;5075049;28;20020;-82
2021/11/07 05:44:05;;;;;;;8.30;5.10;;;12.80;89.70;;;;;;5074971;28;20024;-82
2021/11/07 05:46:31;;;;;;;8.52;4.70;;;12.80;89.70;;;;;;5074728;28;20114;-82
2021/11/07 05:48:57;;;;;;;7.10;4.88;;;12.80;89.70;;;;;;5092941;28;20504;-83
2021/11/07 05:51:23;;;;;;;6.15;4.38;;;12.80;89.80;;;;;;5092670;28;20038;-84
2021/11/07 05:53:50;;;;;;;6.68;4.85;;;12.80;89.80;;;;;;5074737;28;20028;-82
2021/11/07 05:56:15;;;;;;;6.53;4.40;;;12.80;90.30;;;;;;5074607;28;20029;-83
2021/11/07 05:58:41;;;;;;;6.13;4.40;;;12.80;89.80;;;;;;5092809;28;20070;-84
2021/11/07 06:01:07;;;;;;;6.63;4.50;;;12.80;90.00;;;;;;5074804;28;20035;-84
2021/11/07 06:03:32;;;;;;;8.00;4.15;;;12.80;89.80;;;;;;5074662;28;20043;-82
2021/11/07 06:05:58;;;;;;;5.15;3.90;;;12.80;89.80;;;;;;5074408;28;20026;-83
2021/11/07 06:08:24;;;;;;;5.78;4.03;;;12.80;89.90;;;;;;5074603;28;20076;-83
2021/11/07 06:10:50;;;;;;;6.15;4.60;;;12.80;89.80;;;;;;5074383;28;20045;-82
2021/11/07 06:13:15;;;;;;;6.50;4.38;;;12.80;90.50;;;;;;5074557;28;20027;-82
2021/11/07 06:15:41;;;;;;;6.45;4.43;;;12.80;90.10;;;;;;5092370;28;20024;-83
2021/11/07 06:18:07;;;;;;;6.07;4.60;;;12.80;91.00;;;;;;5092468;28;20032;-82
2021/11/07 06:20:33;;;;;;;5.95;3.92;;;12.90;91.00;;;;;;5068775;28;20043;-82
2021/11/07 06:23:00;;;;;;;5.55;3.72;;;12.80;90.50;;;;;;5072570;28;20020;-81
2021/11/07 06:25:26;;;;;;;6.40;3.53;;;12.80;90.20;;;;;;5054461;28;20051;-82
2021/11/07 06:27:53;;;;;;;6.00;3.80;;;12.90;90.20;;;;;;5054237;28;20106;-82
2021/11/07 06:30:19;;;;;;;5.78;3.47;;;12.90;90.10;;;;;;5054272;28;20036;-82
2021/11/07 06:32:45;;;;;;;5.50;3.67;;;12.90;90.00;;;;;;5072373;28;20647;-82
2021/11/07 06:35:12;;;;;;;5.38;3.72;;;12.90;89.90;;;;;;5054110;28;20059;-81
2021/11/07 06:37:38;;;;;;;5.85;3.65;;;12.90;89.80;;;;;;5054354;28;20025;-82
2021/11/07 06:40:05;;;;;;;5.63;3.70;;;12.90;89.80;;;;;;5057567;28;20042;-83
2021/11/07 06:42:30;;;;;;;9.45;3.28;;;12.90;89.80;;;;;;5058284;28;20078;-82
2021/11/07 06:44:56;;;;;;;5.50;3.63;;;12.90;89.70;;;;;;5058327;28;20021;-82
2021/11/07 06:47:22;;;;;;;5.30;3.35;;;12.90;89.80;;;;;;5058085;28;20493;-82
2021/11/07 06:49:49;;;;;;;6.20;3.58;;;12.90;89.80;;;;;;5057857;28;20148;-82
2021/11/07 06:52:15;;;;;;;5.18;3.58;;;13.00;89.70;;;;;;5058226;28;20033;-82
2021/11/07 06:54:40;;;;;;;7.22;3.92;;;12.90;89.80;;;;;;5058017;28;20051;-81
2021/11/07 06:57:06;;;;;;;11.48;3.85;;;12.90;89.80;;;;;;5056560;28;20024;-82
2021/11/07 06:59:32;;;;;;;6.45;3.78;;;12.90;89.80;;;;;;5054153;28;20063;-83
2021/11/07 07:01:58;;;;;;;7.75;4.60;;;12.90;90.00;;;;;;5076142;28;20040;-82
2021/11/07 07:04:24;;;;;;;6.38;3.63;;;12.80;90.00;;;;;;5055293;28;20024;-82
2021/11/07 07:06:49;;;;;;;6.20;3.88;;;12.80;90.00;;;;;;5055191;28;20032;-83
2021/11/07 07:09:22;;;;;;;6.78;3.83;;;12.90;90.00;;;;;;5054877;28;20488;-84
2021/11/07 07:11:50;;;;;;;7.38;3.97;;;12.80;90.40;;;;;;5055230;28;20028;-82
2021/11/07 07:17:01;;;;;;;;;;;12.80;90.30;;;;;;5073479;28;20205;-82
2021/11/07 07:22:23;;;;;;;7.50;3.92;;;12.80;90.20;;;;;;5072844;28;20061;-83
2021/11/07 07:35:06;;;;;;;;;;;12.80;90.10;;;;;;5086044;28;20024;-83
2021/11/07 07:37:32;;;;;;;7.68;3.60;;;12.80;90.20;;;;;;5097709;28;20431;-83
2021/11/07 07:39:58;;;;;;;7.75;3.50;;;12.80;90.20;;;;;;5079721;28;20470;-82
2021/11/07 07:42:23;;;;;;;6.47;3.20;;;12.80;90.40;;;;;;5079849;28;20107;-84
2021/11/07 07:44:50;;;;;;;6.25;3.28;;;12.80;90.10;;;;;;5080018;28;20054;-82
2021/11/07 07:47:16;;;;;;;8.43;3.88;;;12.80;90.20;;;;;;5080043;28;20077;-84
2021/11/07 07:49:41;;;;;;;7.35;3.33;;;12.80;90.40;;;;;;5078926;28;20024;-83
2021/11/07 07:52:07;;;;;;;7.05;3.38;;;12.90;90.20;;;;;;5079625;28;20144;-81
2021/11/07 07:54:33;;;;;;;12.98;3.40;;;12.90;90.20;;;;;;5078767;28;20122;-82
2021/11/07 07:56:58;;;;;;;7.40;3.42;;;12.80;90.80;;;;;;5078719;28;20123;-81
2021/11/07 07:59:24;;;;;;;7.45;3.10;;;12.80;90.30;;;;;;5080014;28;20024;-84
2021/11/07 08:01:51;;;;;;;12.90;3.90;;;12.90;90.40;;;;;;5080128;28;20024;-81
2021/11/07 08:04:18;;;;;;;11.80;3.15;;;12.90;90.30;;;;;;5078575;28;20512;-82
2021/11/07 08:06:44;;;;;;;10.10;3.42;;;12.90;90.20;;;;;;5079018;28;20031;-81
2021/11/07 08:09:09;;;;;;;7.88;3.65;;;12.90;90.20;;;;;;5067791;28;20031;-81
2021/11/07 08:11:35;;;;;;;10.48;3.28;;;12.80;90.10;;;;;;5071195;28;20033;-80
2021/11/07 08:14:01;;;;;;;8.48;3.30;;;12.90;90.10;;;;;;5053163;28;20029;-80
2021/11/07 08:16:28;;;;;;;9.55;3.33;;;12.90;90.10;;;;;;5052786;28;20032;-80
2021/11/07 08:18:53;;;;;;;9.77;2.92;;;12.90;90.40;;;;;;5052828;28;20468;-80
2021/11/07 08:21:20;;;;;;;7.57;2.90;;;12.90;90.10;;;;;;5052411;28;20115;-81
2021/11/07 08:23:49;;;;;;;8.48;3.35;;;12.90;90.10;;;;;;5052419;28;20078;-79
2021/11/07 08:26:15;;;;;;;8.60;3.90;;;12.90;90.10;;;;;;5052457;28;20115;-80
2021/11/07 08:28:42;;;;;;;9.02;2.92;;;12.90;90.10;;;;;;5070593;28;20020;-80
2021/11/07 08:31:10;;;;;;;9.10;3.28;;;12.90;90.00;;;;;;5052622;28;20425;-80
2021/11/07 08:33:36;;;;;;;8.75;2.90;;;12.90;90.00;;;;;;5052294;28;20440;-79
2021/11/07 08:36:19;;;;;;;10.25;3.05;;;12.90;90.10;;;;;;5052567;28;20162;-80
2021/11/07 08:38:51;;;;;;;7.60;2.83;;;12.90;90.00;;;;;;5052342;28;20409;-80
2021/11/07 08:41:19;;;;;;;8.27;2.78;;;12.90;90.10;;;;;;5070092;28;20024;-80
2021/11/07 09:00:25;;;;;;;7.57;2.88;;;13.00;90.10;;;;;;5070417;28;20599;-80
2021/11/07 09:03:15;;;;;;;9.88;2.70;;;13.00;90.00;;;;;;5051562;28;20385;-80
2021/11/07 09:08:16;;;;;;;8.25;3.03;;;13.00;90.00;;;;;;5070194;28;20033;-81
2021/11/07 09:10:43;;;;;;;8.35;3.00;;;13.00;90.00;;;;;;5052002;28;20031;-81
2021/11/07 09:13:10;;;;;;;9.95;2.80;;;13.00;90.00;;;;;;5052001;28;20115;-80
2021/11/07 09:15:39;;;;;;;8.00;2.60;;;13.00;90.00;;;;;;5051488;28;20036;-81
2021/11/07 09:18:05;;;;;;;10.52;3.33;;;13.00;90.00;;;;;;5051652;28;20115;-81
2021/11/07 09:21:00;;;;;;;8.25;2.55;;;13.00;90.00;;;;;;5051698;28;20040;-80
2021/11/07 09:23:31;;;;;;;9.48;3.03;;;13.00;90.00;;;;;;5068912;28;20030;-81
2021/11/07 09:28:29;;;;;;;8.38;2.42;;;13.00;90.10;;;;;;5069581;28;20106;-81
2021/11/07 09:31:07;;;;;;;9.90;3.00;;;13.00;90.00;;;;;;5051512;28;20529;-81
2021/11/07 09:33:52;;;;;;;9.50;2.63;;;13.00;90.00;;;;;;5051273;28;20056;-81
2021/11/07 09:36:40;;;;;;;8.90;2.80;;;13.00;90.00;;;;;;5069035;28;20107;-78
2021/11/07 09:39:18;;;;;;;8.77;2.40;;;13.00;89.80;;;;;;5051240;28;20070;-78
2021/11/07 09:44:14;;;;;;;10.63;3.35;;;13.00;89.60;;;;;;5069565;28;20029;-79
2021/11/07 09:49:16;;;;;;;22.00;3.47;;;13.10;89.20;;;;;;5069751;28;20024;-77
2021/11/07 09:51:58;;;;;;;13.18;3.55;;;13.10;89.20;;;;;;5051658;28;20494;-79
2021/11/07 09:54:25;;;;;;;13.18;3.40;;;13.20;89.30;;;;;;5054699;28;20029;-78
2021/11/07 09:56:53;;;;;;;13.93;2.90;;;13.20;89.00;;;;;;5069355;28;20028;-78
2021/11/07 09:59:19;;;;;;;12.55;3.22;;;13.20;89.00;;;;;;5051399;28;20028;-77
2021/11/07 10:01:50;;;;;;;8.95;2.83;;;13.20;89.40;;;;;;5051333;28;20078;-77
2021/11/07 10:04:16;;;;;;;10.57;2.83;;;13.20;89.40;;;;;;5051730;28;20505;-78
2021/11/07 10:06:45;;;;;;;14.88;2.97;;;13.20;89.10;;;;;;5069092;28;20036;-79
2021/11/07 10:09:11;;;;;;;13.93;3.20;;;13.20;89.00;;;;;;5051385;28;20028;-82
2021/11/07 10:12:10;;;;;;;13.38;2.85;;;13.20;89.30;;;;;;5051866;28;20027;-81
2021/11/07 10:14:45;;;;;;;11.50;2.90;;;13.20;89.30;;;;;;5055962;28;20055;-81
2021/11/07 10:17:51;;;;;;;10.27;3.08;;;13.20;88.90;;;;;;5055665;28;20035;-80
2021/11/07 10:20:32;;;;;;;9.80;2.88;;;13.20;88.90;;;;;;5055483;28;20028;-81
2021/11/07 10:23:05;;;;;;;11.07;2.88;;;13.30;89.50;;;;;;5055673;28;20020;-79
2021/11/07 10:25:37;;;;;;;9.98;3.20;;;13.30;90.00;;;;;;5055140;28;20021;-79
2021/11/07 10:28:37;;;;;;;8.20;2.58;;;13.30;90.00;;;;;;5054965;28;20036;-78
2021/11/07 10:31:12;;;;;;;12.07;3.50;;;13.30;90.20;;;;;;5036165;28;20035;-79
2021/11/07 10:33:54;;;;;;;9.63;2.78;;;13.30;90.60;;;;;;5072637;28;20055;-79
2021/11/07 10:39:36;;;;;;;8.38;3.00;;;13.40;90.80;;;;;;5056719;28;20032;-79
2021/11/07 10:44:40;;;;;;;11.30;2.95;;;13.40;91.20;;;;;;5073359;28;20119;-81
2021/11/07 10:53:02;;;;;;;16.00;3.53;;;13.50;91.40;;;;;;5073102;28;20075;-79
2021/11/07 10:55:29;;;;;;;;;;;13.50;91.50;;;;;;5072484;28;20035;-78
2021/11/07 10:58:03;;;;;;;14.75;3.00;;;13.60;91.60;;;;;;5090499;28;19915;-79
2021/11/07 11:00:47;;;;;;;12.73;3.33;;;13.60;91.20;;;;;;5069618;28;20409;-78
2021/11/07 11:03:18;;;;;;;16.13;3.80;;;13.70;91.40;;;;;;5054879;28;20025;-79
2021/11/07 11:05:53;;;;;;;12.40;3.53;;;13.70;91.40;;;;;;5054443;28;20025;-79
2021/11/07 11:08:26;;;;;;;17.02;4.13;;;13.70;90.60;;;;;;5057376;28;20043;-78
2021/11/07 11:21:48;;;;;;;36.05;4.25;;;13.80;90.40;;;;;;5072241;28;20047;-76
2021/11/07 11:29:57;;;;;;;16.27;3.03;;;14.00;88.20;;;;;;5071083;28;20111;-79
2021/11/07 11:35:14;;;;;;;14.63;3.17;;;14.00;87.20;;;;;;5071800;28;20379;-78
2021/11/07 11:45:12;;;;;;;10.98;2.58;;;13.90;86.60;;;;;;5080106;28;20020;-80
2021/11/07 11:50:47;;;;;;;11.45;2.45;;;13.90;86.70;;;;;;5075531;28;20021;-76
2021/11/07 11:55:44;;;;;;;18.65;2.67;;;13.80;89.00;;;;;;5091071;28;20493;-77
2021/11/07 11:58:18;;;;;;;18.55;3.03;;;14.00;87.50;;;;;;5083419;28;20021;-75
2021/11/07 12:06:34;;;;;;;15.65;2.50;;;13.90;86.60;;;;;;5073869;28;20035;-76
2021/11/07 12:09:38;;;;;;;25.38;3.55;;;13.90;86.60;;;;;;5056361;28;20081;-76
2021/11/07 12:12:20;;;;;;;12.82;2.80;;;13.90;86.80;;;;;;5056273;28;20024;-75
2021/11/07 12:15:09;;;;;;;20.58;3.22;;;13.90;86.70;;;;;;5056301;28;20105;-76
2021/11/07 12:17:41;;;;;;;18.30;3.40;;;13.80;86.70;;;;;;5056361;28;20394;-77
2021/11/07 12:20:29;;;;;;;26.70;3.38;;;13.70;87.00;;;;;;5058273;28;20066;-79
2021/11/07 12:23:15;;;;;;;17.23;2.80;;;13.70;87.30;;;;;;5055908;28;20032;-77
2021/11/07 12:25:42;;;;;;;18.75;2.95;;;13.70;87.50;;;;;;5054425;28;20025;-77
2021/11/07 12:28:07;;;;;;;18.17;3.22;;;13.60;87.90;;;;;;5072005;28;20107;-77
2021/11/07 12:30:33;;;;;;;18.27;3.22;;;13.60;88.20;;;;;;5073045;28;20057;-77
2021/11/07 12:33:21;;;;;;;17.55;2.97;;;13.60;88.30;;;;;;5073406;28;20043;-76
2021/11/07 12:36:23;;;;;;;15.30;2.90;;;13.60;88.50;;;;;;5054306;28;20310;-76
2021/11/07 12:41:33;;;;;;;18.90;3.45;;;13.70;89.10;;;;;;5073073;28;20492;-76
2021/11/07 12:44:02;;;;;;;13.63;2.60;;;13.60;88.80;;;;;;5055274;28;20029;-76
2021/11/07 12:46:52;;;;;;;10.35;2.45;;;13.70;90.00;;;;;;5054665;28;20028;-77
2021/11/07 12:49:30;;;;;;;15.03;2.40;;;13.70;90.40;;;;;;5072962;28;20020;-76
2021/11/07 12:52:04;;;;;;;13.07;2.72;;;13.80;90.70;;;;;;5055024;28;20468;-76
2021/11/07 12:54:34;;;;;;;12.52;2.83;;;13.80;90.70;;;;;;5054908;28;20533;-77
2021/11/07 12:57:09;;;;;;;13.13;2.60;;;13.80;90.50;;;;;;5054310;28;20024;-76
2021/11/07 12:59:42;;;;;;;11.60;2.90;;;13.70;90.70;;;;;;5054951;28;20089;-76
2021/11/07 13:02:32;;;;;;;10.85;2.97;;;13.70;90.90;;;;;;5054664;28;20021;-76
2021/11/07 13:05:06;;;;;;;10.23;2.35;;;13.70;91.20;;;;;;5054818;28;20507;-77
2021/11/07 13:07:44;;;;;;;12.27;2.40;;;13.70;91.00;;;;;;5072350;28;20026;-75
2021/11/07 13:10:20;;;;;;;8.38;2.35;;;13.70;91.30;;;;;;5072179;28;20023;-77
2021/11/07 13:12:55;;;;;;;13.23;2.20;;;13.70;91.30;;;;;;5072492;28;20366;-77
2021/11/07 13:15:52;;;;;;;11.95;2.67;;;13.80;91.40;;;;;;5054358;28;20021;-78
2021/11/07 13:22:10;;;;;;;11.32;2.60;;;13.90;91.00;;;;;;5029960;28;20033;-76
2021/11/07 13:27:41;;;;;;;10.85;2.30;;;14.00;91.20;;;;;;5016666;28;20031;-77
2021/11/07 13:30:16;;;;;;;11.40;2.10;;;14.00;91.10;;;;;;5072043;28;20012;-77
2021/11/07 13:32:42;;;;;;;9.65;1.98;;;14.10;91.30;;;;;;5054353;28;20438;-76
2021/11/07 13:35:16;;;;;;;7.75;2.10;;;14.10;91.00;;;;;;5053978;28;20105;-76
2021/11/07 13:37:53;;;;;;;7.20;2.08;;;14.10;90.70;;;;;;5054080;28;20036;-77
2021/11/07 13:40:25;;;;;;;10.35;2.10;;;14.00;91.00;;;;;;5072064;28;20047;-77
2021/11/07 13:42:52;;;;;;;11.10;2.08;;;13.90;91.10;;;;;;5054178;28;20020;-77
2021/11/07 13:45:23;;;;;;;7.90;1.77;;;13.90;91.40;;;;;;5071708;28;20103;-77
2021/11/07 13:47:50;;;;;;;8.32;2.28;;;13.90;91.30;;;;;;5053679;28;20040;-77
2021/11/07 13:50:19;;;;;;;9.55;2.30;;;13.80;91.60;;;;;;5071974;28;20017;-77
2021/11/07 13:52:46;;;;;;;10.60;2.65;;;13.80;91.50;;;;;;5053963;28;20032;-76
2021/11/07 13:55:21;;;;;;;9.07;2.40;;;13.80;91.40;;;;;;5053744;28;20024;-77
2021/11/07 13:57:48;;;;;;;10.48;1.88;;;13.90;91.50;;;;;;5071788;28;20549;-77
2021/11/07 14:00:20;;;;;;;7.45;1.90;;;13.90;91.30;;;;;;5054078;28;20040;-76
2021/11/07 14:02:51;;;;;;;10.85;2.25;;;13.90;91.00;;;;;;5072015;28;20025;-77
2021/11/07 14:05:18;;;;;;;8.13;1.85;;;13.90;91.30;;;;;;5053664;28;20540;-77
2021/11/07 14:07:57;;;;;;;7.68;1.67;;;13.90;91.40;;;;;;5055064;28;20032;-77
2021/11/07 14:10:25;;;;;;;7.55;1.70;;;13.90;91.70;;;;;;5056010;28;20035;-77
2021/11/07 14:12:55;;;;;;;7.00;1.70;;;13.90;91.30;;;;;;5053743;28;20028;-78
2021/11/07 14:15:27;;;;;;;6.95;2.08;;;13.90;91.50;;;;;;5071258;28;20025;-78
2021/11/07 14:18:08;;;;;;;7.60;1.70;;;13.90;91.20;;;;;;5053587;28;20021;-77
2021/11/07 14:20:36;;;;;;;7.80;1.80;;;13.90;91.20;;;;;;5071664;28;20031;-78
2021/11/07 14:23:16;;;;;;;8.57;1.80;;;14.00;91.00;;;;;;5053692;28;20039;-77
2021/11/07 14:25:52;;;;;;;8.73;2.08;;;14.00;90.60;;;;;;5053537;28;20066;-79
2021/11/07 14:28:22;;;;;;;8.20;1.80;;;14.10;90.50;;;;;;5053580;28;20033;-76
2021/11/07 14:30:49;;;;;;;8.52;2.17;;;14.10;90.40;;;;;;5053716;28;20036;-78
2021/11/07 14:33:24;;;;;;;8.48;1.90;;;14.10;90.40;;;;;;5071399;28;20066;-77
2021/11/07 14:35:52;;;;;;;8.13;1.92;;;14.10;90.60;;;;;;5071274;28;20129;-78
2021/11/07 14:38:24;;;;;;;7.85;2.00;;;14.00;90.70;;;;;;5071299;28;20536;-77
2021/11/07 14:46:52;;;;;;;8.77;2.20;;;14.10;90.10;;;;;;5039583;28;20437;-78
2021/11/07 14:52:11;;;;;;;8.05;1.98;;;14.10;90.00;;;;;;5071372;28;20382;-78
2021/11/07 14:54:48;;;;;;;8.30;1.80;;;14.00;89.00;;;;;;5053343;28;20575;-78
2021/11/07 15:05:37;;;;;;;8.15;1.85;;;13.90;89.70;;;;;;5073411;28;20500;-76
2021/11/07 15:13:54;;;;;;;7.82;2.08;;;13.80;89.10;;;;;;5075017;28;20025;-78
2021/11/07 15:21:47;;;;;;;7.55;1.88;;;13.70;88.90;;;;;;5074691;28;20017;-78
2021/11/07 15:24:25;;;;;;;9.00;1.75;;;13.70;88.90;;;;;;5056673;28;20124;-77
2021/11/07 15:27:01;;;;;;;8.20;2.00;;;13.70;88.90;;;;;;5056297;28;20115;-77
2021/11/07 15:29:33;;;;;;;11.93;1.98;;;13.60;88.70;;;;;;5074512;28;20055;-78
2021/11/07 15:32:08;;;;;;;7.25;1.95;;;13.60;88.60;;;;;;5056388;28;20086;-77
2021/11/07 15:34:36;;;;;;;6.78;1.73;;;13.60;88.70;;;;;;5056566;28;20029;-78
2021/11/07 15:37:03;;;;;;;6.15;1.63;;;13.60;88.70;;;;;;5056142;28;20024;-77
2021/11/07 15:39:32;;;;;;;8.05;1.88;;;13.60;88.50;;;;;;5074303;28;20066;-76
2021/11/07 15:42:28;;;;;;;9.18;1.90;;;13.60;88.40;;;;;;5074164;28;20108;-77